Time;durP1;ratioP1;P1;durP2;ratioP2;P2;SDS_P1;SDS_P2;PMS_P1;PMS_P2;Temp;Humidity;BMP_temperature;BMP_pressure;BME280_temperature;BME280_humidity;BME280_pressure;Samples;Min_cycle;Max_cycle;Signal;HPM_P1;HPM_P2
2020/12/06 00:00:23;;;;;;;20.87;11.13;;;;;;;9.80;73.19;94815.25;5031464;28;20231;-76
2020/12/06 00:02:48;;;;;;;17.47;9.63;;;;;;;9.68;73.72;94826.00;5031036;28;20631;-76
2020/12/06 00:05:14;;;;;;;19.83;11.50;;;;;;;9.72;73.65;94827.66;5034376;28;20634;-76
2020/12/06 00:07:39;;;;;;;16.37;10.17;;;;;;;9.82;73.14;94813.06;5034166;28;20267;-76
2020/12/06 00:10:08;;;;;;;21.03;10.33;;;;;;;9.68;73.76;94823.31;5034228;28;20200;-75
2020/12/06 00:12:37;;;;;;;16.47;10.23;;;;;;;9.76;73.40;94820.53;5034147;28;20191;-76
2020/12/06 00:15:05;;;;;;;18.80;10.43;;;;;;;9.71;73.47;94825.31;5032913;28;20598;-77
2020/12/06 00:17:30;;;;;;;18.47;10.83;;;;;;;9.73;73.50;94823.84;5034216;28;20677;-76
2020/12/06 00:19:56;;;;;;;20.30;9.93;;;;;;;9.53;74.64;94830.16;5034220;28;20952;-76
2020/12/06 00:22:21;;;;;;;17.07;10.40;;;;;;;9.70;73.60;94832.53;5034005;28;20179;-76
2020/12/06 00:24:47;;;;;;;17.23;11.17;;;;;;;9.46;74.20;94821.97;5032769;28;20227;-76
2020/12/06 00:27:12;;;;;;;21.50;11.13;;;;;;;9.58;74.13;94826.47;5033885;28;20220;-76
2020/12/06 00:29:39;;;;;;;19.33;11.00;;;;;;;9.51;74.00;94830.50;5033657;28;20203;-75
2020/12/06 00:32:05;;;;;;;20.83;10.70;;;;;;;9.61;74.30;94828.47;5034003;28;20176;-75
2020/12/06 00:34:30;;;;;;;16.83;9.17;;;;;;;9.69;73.93;94830.19;5033555;28;20690;-76
2020/12/06 00:36:56;;;;;;;16.70;9.50;;;;;;;9.43;74.97;94834.09;5033767;28;20200;-77
2020/12/06 00:39:21;;;;;;;19.60;10.87;;;;;;;9.63;74.38;94831.56;5033482;28;20547;-79
2020/12/06 00:41:47;;;;;;;19.27;9.90;;;;;;;9.56;74.55;94826.03;5032528;28;20238;-75
2020/12/06 00:44:12;;;;;;;16.33;9.40;;;;;;;9.62;74.33;94827.34;5033788;28;20607;-78
2020/12/06 00:46:38;;;;;;;17.27;11.03;;;;;;;9.64;73.63;94833.13;5033662;28;20661;-78
2020/12/06 00:49:04;;;;;;;18.60;9.33;;;;;;;9.66;73.85;94837.00;5033751;28;20231;-77
2020/12/06 00:51:29;;;;;;;18.77;10.63;;;;;;;9.72;73.50;94834.88;5033377;28;20271;-76
2020/12/06 00:53:54;;;;;;;21.23;9.97;;;;;;;9.80;73.29;94837.38;5033569;28;20253;-77
2020/12/06 00:56:20;;;;;;;15.47;9.73;;;;;;;9.77;73.22;94832.72;5033458;28;20303;-77
2020/12/06 00:58:46;;;;;;;18.20;9.43;;;;;;;9.67;74.09;94838.56;5033726;28;20184;-77
2020/12/06 01:01:13;;;;;;;16.23;9.53;;;;;;;9.45;74.95;94810.53;5033575;28;20175;-77
2020/12/06 01:03:38;;;;;;;20.23;10.07;;;;;;;9.72;74.24;94824.97;5033527;28;20587;-77
2020/12/06 01:06:06;;;;;;;17.13;9.93;;;;;;;9.75;73.61;94820.84;5033224;28;20586;-77
2020/12/06 01:08:32;;;;;;;16.77;9.77;;;;;;;9.58;74.51;94821.13;5033270;28;20164;-76
2020/12/06 01:10:57;;;;;;;16.17;9.37;;;;;;;9.56;74.52;94821.50;5032805;28;20586;-76
2020/12/06 01:13:23;;;;;;;19.43;9.63;;;;;;;9.58;74.13;94819.25;5027989;28;20254;-76
2020/12/06 01:15:48;;;;;;;16.23;8.73;;;;;;;9.74;73.71;94824.63;5025090;28;70771;-75
2020/12/06 01:18:14;;;;;;;19.43;9.77;;;;;;;9.71;73.35;94823.44;5033004;28;20210;-76
2020/12/06 01:20:39;;;;;;;17.73;8.87;;;;;;;9.76;73.69;94814.38;5033222;28;20647;-76
2020/12/06 01:23:05;;;;;;;15.90;9.43;;;;;;;9.81;73.01;94822.13;5032775;28;20216;-77
2020/12/06 01:25:30;;;;;;;20.50;9.20;;;;;;;9.77;72.23;94802.63;5032702;28;20225;-76
2020/12/06 01:27:56;;;;;;;17.53;8.30;;;;;;;9.71;73.01;94817.31;5032942;28;20179;-76
2020/12/06 01:30:21;;;;;;;15.70;9.07;;;;;;;9.62;73.02;94822.03;5032774;28;20208;-76
2020/12/06 01:32:47;;;;;;;15.73;9.00;;;;;;;9.74;73.73;94828.06;5032722;28;20168;-77
2020/12/06 01:35:12;;;;;;;18.87;8.73;;;;;;;9.81;73.25;94814.91;5032912;28;20185;-77
2020/12/06 01:37:38;;;;;;;16.63;8.90;;;;;;;9.75;73.38;94807.50;5032926;28;20218;-76
2020/12/06 01:40:03;;;;;;;16.67;9.50;;;;;;;9.31;75.26;94818.13;5032334;28;20200;-76
2020/12/06 01:42:29;;;;;;;17.43;9.63;;;;;;;9.36;74.10;94798.47;5032588;28;20173;-77
2020/12/06 01:45:00;;;;;;;14.90;9.43;;;;;;;9.55;73.87;94814.59;5032380;28;20180;-76
2020/12/06 01:47:29;;;;;;;17.20;8.70;;;;;;;9.34;74.89;94806.78;5032345;28;20168;-76
2020/12/06 01:49:55;;;;;;;16.80;8.67;;;;;;;9.46;74.12;94805.97;5030522;28;20653;-77
2020/12/06 01:52:20;;;;;;;14.57;8.60;;;;;;;9.46;74.35;94793.41;5032227;28;20626;-76
2020/12/06 01:54:48;;;;;;;15.10;8.83;;;;;;;9.36;74.74;94801.91;5031003;28;20583;-76
2020/12/06 01:57:13;;;;;;;13.33;7.67;;;;;;;9.34;74.70;94790.81;5031002;28;20234;-75
2020/12/06 01:59:39;;;;;;;17.67;9.33;;;;;;;9.42;74.09;94800.53;5032051;28;20583;-75
2020/12/06 02:02:05;;;;;;;13.40;8.03;;;;;;;9.49;74.03;94791.97;5032200;28;20246;-75
2020/12/06 02:04:31;;;;;;;18.67;9.07;;;;;;;9.43;74.53;94796.78;5032090;28;20184;-75
2020/12/06 02:06:56;;;;;;;12.77;8.23;;;;;;;9.47;73.68;94802.19;5031763;28;20268;-75
2020/12/06 02:09:22;;;;;;;19.30;9.10;;;;;;;9.57;73.61;94799.03;5031802;28;21227;-76
2020/12/06 02:11:48;;;;;;;14.80;9.30;;;;;;;9.45;73.87;94797.22;5031641;28;20168;-77
2020/12/06 02:14:14;;;;;;;15.00;8.50;;;;;;;9.41;74.03;94798.22;5031970;28;20544;-76
2020/12/06 02:16:39;;;;;;;16.13;8.80;;;;;;;9.56;73.08;94802.81;5030457;28;20171;-77
2020/12/06 02:19:08;;;;;;;17.33;9.13;;;;;;;9.64;73.08;94807.22;5031901;28;20172;-75
2020/12/06 02:21:34;;;;;;;16.40;8.20;;;;;;;9.55;73.31;94801.28;5031645;28;20175;-75
2020/12/06 02:24:03;;;;;;;14.87;7.70;;;;;;;9.64;73.44;94801.13;5031899;28;20610;-76
2020/12/06 02:26:28;;;;;;;12.50;7.20;;;;;;;9.66;73.19;94798.91;5030543;28;20700;-77
2020/12/06 02:28:55;;;;;;;15.47;7.13;;;;;;;9.56;73.51;94797.50;5031856;28;20678;-76
2020/12/06 02:31:20;;;;;;;12.30;7.77;;;;;;;9.58;72.61;94797.91;5031510;28;20661;-76
2020/12/06 02:33:46;;;;;;;11.17;7.30;;;;;;;9.56;73.16;94805.50;5031552;28;20630;-75
2020/12/06 02:36:12;;;;;;;15.50;9.00;;;;;;;9.62;73.41;94793.47;5031720;28;20177;-76
2020/12/06 02:38:37;;;;;;;13.13;7.47;;;;;;;9.68;73.19;94794.78;5031253;28;20222;-76
2020/12/06 02:41:02;;;;;;;11.50;7.43;;;;;;;9.63;72.75;94788.91;5031365;28;20175;-77
2020/12/06 02:43:28;;;;;;;16.50;8.47;;;;;;;9.42;73.96;94789.09;5031240;28;20209;-76
2020/12/06 02:45:53;;;;;;;16.10;8.03;;;;;;;9.38;73.91;94791.69;5031404;28;20180;-76
2020/12/06 02:48:19;;;;;;;15.73;8.77;;;;;;;9.56;73.46;94791.41;5031328;28;20256;-78
2020/12/06 02:50:45;;;;;;;15.37;8.90;;;;;;;9.48;73.78;94774.41;5030420;28;20207;-82
2020/12/06 02:53:10;;;;;;;14.80;7.93;;;;;;;9.35;74.20;94784.34;5031454;28;20189;-83
2020/12/06 02:55:36;;;;;;;14.27;8.80;;;;;;;9.44;73.95;94781.56;5032400;28;20196;-86
2020/12/06 02:58:01;;;;;;;12.77;7.97;;;;;;;9.31;73.96;94762.16;5031189;28;20164;-85
2020/12/06 03:00:27;;;;;;;16.87;8.33;;;;;;;9.37;74.03;94776.03;5032486;28;20199;-83
2020/12/06 03:02:52;;;;;;;15.40;9.53;;;;;;;9.55;73.60;94777.28;5032296;28;20568;-84
2020/12/06 03:05:18;;;;;;;10.93;6.70;;;;;;;9.61;73.05;94788.47;5031990;28;20606;-90
2020/12/06 03:07:43;;;;;;;15.13;8.40;;;;;;;9.50;73.14;94780.19;5032447;28;20168;-87
2020/12/06 03:10:09;;;;;;;13.73;7.60;;;;;;;9.57;73.44;94772.38;5032878;28;20758;-87
2020/12/06 03:12:35;;;;;;;15.10;8.83;;;;;;;9.25;74.46;94769.63;5033453;28;20631;-90
2020/12/06 03:15:01;;;;;;;17.30;8.03;;;;;;;9.22;74.07;94764.97;5030352;28;20188;-86
2020/12/06 03:17:27;;;;;;;14.10;8.00;;;;;;;9.37;73.66;94781.34;5035591;28;20575;-79
2020/12/06 03:19:52;;;;;;;10.83;7.20;;;;;;;9.44;74.29;94781.56;5032495;28;20615;-88
2020/12/06 03:22:18;;;;;;;14.50;7.47;;;;;;;9.41;74.04;94787.56;5031786;28;20684;-82
2020/12/06 03:24:43;;;;;;;13.90;7.63;;;;;;;9.41;74.10;94771.56;5033806;28;20200;-90
2020/12/06 03:27:09;;;;;;;14.87;7.30;;;;;;;9.41;74.29;94768.91;5031246;28;20710;-86
2020/12/06 03:29:34;;;;;;;11.13;7.10;;;;;;;9.28;73.92;94758.31;5036075;28;20892;-85
2020/12/06 03:32:00;;;;;;;16.00;7.17;;;;;;;9.43;73.58;94772.03;5034232;28;20192;-88
2020/12/06 03:34:25;;;;;;;15.77;8.63;;;;;;;9.42;73.97;94781.09;5032553;28;20545;-85
2020/12/06 03:36:51;;;;;;;10.60;7.30;;;;;;;9.21;74.21;94758.13;5032650;28;20180;-89
2020/12/06 03:39:16;;;;;;;15.23;8.00;;;;;;;9.40;74.37;94770.78;5034793;28;20188;-82
2020/12/06 03:41:45;;;;;;;15.50;9.07;;;;;;;9.46;73.61;94768.66;5035818;28;20156;-85
2020/12/06 03:44:11;;;;;;;14.63;8.73;;;;;;;9.49;73.09;94763.44;5035117;28;20176;-87
2020/12/06 03:46:36;;;;;;;16.80;8.40;;;;;;;9.58;73.25;94770.50;5036294;28;20648;-82
2020/12/06 03:49:02;;;;;;;12.93;8.00;;;;;;;9.55;73.65;94766.63;5035630;28;20188;-80
2020/12/06 03:51:27;;;;;;;17.47;9.47;;;;;;;9.72;73.25;94776.97;5035454;28;20175;-80
2020/12/06 03:53:53;;;;;;;16.13;8.97;;;;;;;9.62;73.48;94776.69;5035792;28;20647;-84
2020/12/06 03:56:18;;;;;;;13.00;8.17;;;;;;;9.58;73.82;94779.25;5035090;28;20168;-86
2020/12/06 03:58:45;;;;;;;11.27;7.70;;;;;;;9.31;73.85;94738.19;5034901;28;20242;-82
2020/12/06 04:01:11;;;;;;;14.63;8.07;;;;;;;9.53;74.14;94782.16;5035118;28;20165;-82
2020/12/06 04:03:36;;;;;;;14.10;7.70;;;;;;;9.59;73.77;94783.47;5035222;28;20601;-86
2020/12/06 04:06:02;;;;;;;16.60;7.83;;;;;;;9.43;73.94;94764.78;5035344;28;20606;-85
2020/12/06 04:08:27;;;;;;;10.83;6.80;;;;;;;9.59;74.19;94772.81;5034810;28;20180;-86
2020/12/06 04:10:53;;;;;;;12.50;7.00;;;;;;;9.52;73.83;94761.97;5035156;28;20239;-85
2020/12/06 04:13:18;;;;;;;15.77;7.90;;;;;;;9.67;73.04;94768.47;5034821;28;20172;-83
2020/12/06 04:15:44;;;;;;;14.23;7.87;;;;;;;9.59;73.00;94770.16;5045417;28;20176;-83
2020/12/06 04:18:09;;;;;;;11.93;7.13;;;;;;;9.50;73.79;94772.19;5035265;28;20219;-83
2020/12/06 04:20:35;;;;;;;14.67;7.53;;;;;;;9.58;74.00;94765.94;5035046;28;20215;-91
2020/12/06 04:23:00;;;;;;;13.50;7.80;;;;;;;9.58;74.08;94755.28;5034926;28;20263;-88
2020/12/06 04:25:26;;;;;;;11.67;6.93;;;;;;;9.63;73.62;94765.69;5034283;28;20255;-88
2020/12/06 04:27:51;;;;;;;13.10;6.63;;;;;;;9.59;74.33;94767.47;5035207;28;20196;-88
2020/12/06 04:30:17;;;;;;;13.20;8.10;;;;;;;9.62;74.05;94769.47;5034317;28;20212;-86
2020/12/06 04:32:42;;;;;;;12.67;7.20;;;;;;;9.67;74.24;94768.47;5036020;28;20169;-84
2020/12/06 04:35:08;;;;;;;11.67;7.30;;;;;;;9.41;74.16;94742.25;5036329;28;20640;-84
2020/12/06 04:37:34;;;;;;;10.27;7.17;;;;;;;9.46;74.59;94763.34;5038066;28;20165;-88
2020/12/06 04:40:00;;;;;;;11.57;7.23;;;;;;;9.39;74.30;94758.59;5039641;28;20184;-80
2020/12/06 04:42:25;;;;;;;12.97;7.17;;;;;;;9.48;74.33;94764.56;5047013;28;20187;-82
2020/12/06 04:44:51;;;;;;;13.77;8.23;;;;;;;9.56;74.33;94767.41;5049719;28;20176;-82
2020/12/06 04:47:22;;;;;;;11.27;7.47;;;;;;;9.50;74.44;94758.88;5021685;28;20635;-88
2020/12/06 04:49:47;;;;;;;12.57;7.20;;;;;;;9.58;74.51;94763.28;5034866;28;20215;-86
2020/12/06 04:52:20;;;;;;;10.47;6.83;;;;;;;9.57;73.54;94759.06;5033815;28;20595;-88
2020/12/06 04:54:57;;;;;;;15.57;8.43;;;;;;;9.57;74.75;94777.72;5033851;28;20176;-85
2020/12/06 04:57:23;;;;;;;14.13;8.20;;;;;;;9.37;75.36;94779.47;5033667;28;20955;-84
2020/12/06 04:59:48;;;;;;;13.77;7.47;;;;;;;9.43;75.16;94777.34;5033611;28;20629;-88
2020/12/06 05:02:18;;;;;;;13.23;7.13;;;;;;;9.47;74.48;94770.22;5016974;28;20169;-86
2020/12/06 05:04:44;;;;;;;10.47;7.30;;;;;;;9.44;74.80;94779.66;5033651;28;20644;-86
2020/12/06 05:07:09;;;;;;;12.13;6.53;;;;;;;9.52;74.67;94776.06;5016976;28;20579;-83
2020/12/06 05:09:36;;;;;;;13.83;7.27;;;;;;;9.45;74.17;94762.56;5034579;28;20199;-86
2020/12/06 05:12:02;;;;;;;11.63;7.07;;;;;;;9.50;74.37;94786.31;5034621;28;20199;-87
2020/12/06 05:14:28;;;;;;;11.30;6.93;;;;;;;9.27;74.50;94775.41;5041570;28;20583;-87
2020/12/06 05:16:54;;;;;;;12.73;7.40;;;;;;;9.48;75.23;94799.22;5033201;28;20625;-83
2020/12/06 05:19:20;;;;;;;14.40;7.70;;;;;;;9.43;74.67;94791.44;5032800;28;20534;-85
2020/12/06 05:21:48;;;;;;;15.67;6.90;;;;;;;9.43;74.67;94780.78;5016542;28;20661;-89
2020/12/06 05:24:14;;;;;;;15.77;6.77;;;;;;;9.48;75.04;94790.41;5033065;28;20227;-90
2020/12/06 05:26:39;;;;;;;15.50;7.87;;;;;;;9.52;75.02;94785.97;5033075;28;21146;-89
2020/12/06 05:29:05;;;;;;;12.80;7.03;;;;;;;9.50;75.38;94786.31;5033489;28;20203;-90
2020/12/06 05:31:30;;;;;;;16.03;7.53;;;;;;;9.48;75.42;94787.75;5034088;28;20686;-89
2020/12/06 05:33:56;;;;;;;14.97;6.67;;;;;;;9.24;75.76;94761.97;5033425;28;20191;-85
2020/12/06 05:36:22;;;;;;;12.67;7.13;;;;;;;9.49;75.65;94791.97;5033499;28;20521;-80
2020/12/06 05:38:48;;;;;;;12.70;7.77;;;;;;;9.45;75.29;94797.22;5031861;28;20633;-83
2020/12/06 05:41:13;;;;;;;11.53;7.37;;;;;;;9.57;74.72;94799.03;5034412;28;20177;-86
2020/12/06 05:43:39;;;;;;;12.00;7.17;;;;;;;9.40;74.76;94786.78;5043631;28;20202;-89
2020/12/06 05:46:08;;;;;;;13.80;6.67;;;;;;;9.52;74.64;94799.28;5034331;28;20537;-85
2020/12/06 05:48:33;;;;;;;14.20;7.80;;;;;;;9.59;74.57;94815.47;5033538;28;20247;-89
2020/12/06 05:51:00;;;;;;;11.70;6.57;;;;;;;9.58;74.64;94803.25;5031981;28;20607;-80
2020/12/06 05:53:26;;;;;;;15.37;7.63;;;;;;;9.75;73.79;94818.94;5032157;28;20189;-84
2020/12/06 05:55:54;;;;;;;14.00;7.33;;;;;;;9.76;73.70;94825.84;5032320;28;20652;-84
2020/12/06 05:58:20;;;;;;;17.73;8.10;;;;;;;9.71;74.45;94823.44;5016530;28;20558;-88
2020/12/06 06:00:45;;;;;;;14.83;8.90;;;;;;;9.61;73.81;94791.16;5031950;28;20555;-90
2020/12/06 06:03:11;;;;;;;12.47;7.57;;;;;;;9.77;73.40;94816.72;5030366;28;20274;-85
2020/12/06 06:05:36;;;;;;;16.73;7.67;;;;;;;9.81;73.41;94830.91;5018554;28;20203;-78
2020/12/06 06:08:02;;;;;;;12.37;7.37;;;;;;;9.76;73.59;94825.84;5050037;28;20172;-79
2020/12/06 06:10:31;;;;;;;13.07;6.70;;;;;;;9.68;73.96;94826.75;5047718;28;20219;-79
2020/12/06 06:12:58;;;;;;;8.73;6.10;;;;;;;9.66;73.48;94818.34;5024056;28;20168;-89
2020/12/06 06:15:24;;;;;;;13.27;7.00;;;;;;;9.65;74.02;94816.78;5017257;28;21001;-86
2020/12/06 06:17:50;;;;;;;11.77;7.03;;;;;;;9.65;74.18;94826.66;5015695;28;20582;-88
2020/12/06 06:20:15;;;;;;;12.70;6.47;;;;;;;9.74;74.18;94828.06;5033259;28;20183;-86
2020/12/06 06:22:42;;;;;;;15.20;7.40;;;;;;;9.62;74.33;94830.78;5032890;28;20178;-87
2020/12/06 06:25:08;;;;;;;14.37;7.50;;;;;;;9.56;74.97;94834.81;5033104;28;20541;-85
2020/12/06 06:27:34;;;;;;;13.43;7.10;;;;;;;9.63;74.79;94823.56;5031643;28;20661;-88
2020/12/06 06:30:00;;;;;;;12.47;6.60;;;;;;;9.63;74.52;94829.66;5031876;28;20581;-85
2020/12/06 06:32:28;;;;;;;11.70;6.60;;;;;;;9.71;74.59;94828.75;5032679;28;20624;-88
2020/12/06 06:34:53;;;;;;;11.33;6.70;;;;;;;9.67;74.33;94808.44;5032626;28;20583;-90
2020/12/06 06:37:19;;;;;;;11.17;6.73;;;;;;;9.59;74.02;94807.47;5032679;28;20583;-84
2020/12/06 06:39:44;;;;;;;14.77;7.27;;;;;;;9.79;73.99;94832.38;5036609;28;20199;-81
2020/12/06 06:42:12;;;;;;;14.30;6.77;;;;;;;9.75;74.20;94823.50;5036708;28;20164;-86
2020/12/06 06:44:42;;;;;;;10.60;5.47;;;;;;;9.86;73.93;94829.13;5032348;28;20183;-87
2020/12/06 06:47:09;;;;;;;10.13;6.50;;;;;;;9.89;73.73;94834.56;5034250;28;20582;-88
2020/12/06 06:49:54;;;;;;;13.60;6.60;;;;;;;9.76;74.28;94839.19;5032843;28;20758;-88
2020/12/06 06:52:20;;;;;;;14.07;6.57;;;;;;;9.69;74.08;94833.66;5037168;28;20539;-85
2020/12/06 06:54:47;;;;;;;10.37;5.87;;;;;;;9.70;73.58;94832.53;5034648;28;20586;-82
2020/12/06 06:57:12;;;;;;;12.23;6.90;;;;;;;9.78;73.39;94839.59;5032600;28;20587;-88
2020/12/06 06:59:54;;;;;;;12.17;6.77;;;;;;;9.76;72.80;94825.84;5043571;28;20594;-79
2020/12/06 07:02:26;;;;;;;11.77;6.40;;;;;;;9.79;73.26;94843.81;5046150;28;20172;-84
2020/12/06 07:04:52;;;;;;;12.23;7.27;;;;;;;9.80;72.89;94833.94;5035169;28;20941;-87
2020/12/06 07:07:45;;;;;;;12.27;6.27;;;;;;;9.81;73.30;94836.25;5034059;28;21014;-90
2020/12/06 07:10:14;;;;;;;10.00;6.13;;;;;;;9.76;73.03;94831.19;5036816;28;20661;-84
2020/12/06 07:12:53;;;;;;;12.27;6.50;;;;;;;9.74;72.49;94827.28;5034266;28;20579;-91
2020/12/06 07:15:20;;;;;;;10.87;6.93;;;;;;;9.85;72.74;94827.59;5036831;28;20566;-83
2020/12/06 07:17:46;;;;;;;14.10;6.70;;;;;;;9.84;71.94;94820.69;5036010;28;20593;-88
2020/12/06 07:20:12;;;;;;;11.23;6.97;;;;;;;9.86;72.17;94818.47;5035807;28;20586;-86
2020/12/06 07:22:38;;;;;;;14.07;6.87;;;;;;;9.91;71.86;94826.22;5035231;28;20247;-88
2020/12/06 07:25:04;;;;;;;11.60;6.73;;;;;;;9.92;71.52;94817.88;5035847;28;20698;-79
2020/12/06 07:27:30;;;;;;;12.77;7.03;;;;;;;9.90;71.67;94808.66;5035831;28;20706;-84
2020/12/06 07:29:55;;;;;;;12.50;7.23;;;;;;;9.90;71.67;94819.34;5034638;28;20302;-89
2020/12/06 07:32:21;;;;;;;12.57;7.13;;;;;;;10.03;71.88;94826.13;5037157;28;20251;-90
2020/12/06 07:34:48;;;;;;;13.87;7.37;;;;;;;9.94;71.78;94807.66;5036297;28;20202;-80
2020/12/06 07:37:14;;;;;;;11.90;7.00;;;;;;;10.02;71.59;94813.94;5038277;28;20173;-78
2020/12/06 07:39:43;;;;;;;10.50;6.30;;;;;;;10.05;71.40;94800.69;5041162;28;20633;-87
2020/12/06 07:42:09;;;;;;;10.80;6.73;;;;;;;9.99;70.98;94823.41;5036906;28;20199;-84
2020/12/06 07:44:45;;;;;;;12.27;7.10;;;;;;;10.02;70.66;94827.25;5036109;28;21114;-82
2020/12/06 07:47:12;;;;;;;15.43;9.17;;;;;;;9.88;70.58;94822.34;5035683;28;20157;-88
2020/12/06 07:49:45;;;;;;;11.07;6.47;;;;;;;9.85;71.41;94804.34;5036949;28;20599;-91
2020/12/06 07:52:12;;;;;;;14.73;7.47;;;;;;;9.96;70.66;94817.97;5036513;28;20644;-85
2020/12/06 07:54:38;;;;;;;13.43;7.67;;;;;;;10.00;70.57;94819.63;5036311;28;20583;-77
2020/12/06 07:57:03;;;;;;;11.53;6.80;;;;;;;10.04;70.66;94801.00;5034323;28;20633;-88
2020/12/06 07:59:29;;;;;;;13.43;7.37;;;;;;;10.03;70.26;94797.56;5015109;28;20173;-84
2020/12/06 08:01:54;;;;;;;14.33;7.73;;;;;;;10.04;70.91;94819.69;5014059;28;20181;-81
2020/12/06 08:04:27;;;;;;;11.53;7.30;;;;;;;9.98;71.05;94795.16;5030627;28;20173;-82
2020/12/06 08:06:58;;;;;;;14.30;7.43;;;;;;;10.03;70.89;94802.13;5019454;28;20173;-84
2020/12/06 08:09:23;;;;;;;13.50;7.10;;;;;;;10.07;71.04;94805.66;5018575;28;20617;-82
2020/12/06 08:11:50;;;;;;;14.63;7.70;;;;;;;10.22;70.65;94809.47;5016916;28;20962;-83
2020/12/06 08:14:19;;;;;;;13.47;7.03;;;;;;;10.19;69.57;94810.94;5033804;28;20176;-85
2020/12/06 08:17:01;;;;;;;15.43;6.83;;;;;;;10.08;70.22;94812.56;5018174;28;21257;-82
2020/12/06 08:19:27;;;;;;;15.77;7.70;;;;;;;10.21;69.64;94819.38;5014140;28;20576;-84
2020/12/06 08:22:00;;;;;;;13.53;6.90;;;;;;;10.14;70.08;94803.19;5014319;28;21068;-84
2020/12/06 08:24:26;;;;;;;17.83;7.83;;;;;;;10.09;69.97;94792.75;5013068;28;20197;-83
2020/12/06 08:26:52;;;;;;;13.60;7.43;;;;;;;10.22;69.99;94815.59;5014201;28;21340;-82
2020/12/06 08:29:18;;;;;;;14.83;8.13;;;;;;;9.97;70.75;94790.94;5012213;28;20749;-82
2020/12/06 08:31:45;;;;;;;15.40;8.27;;;;;;;10.15;70.36;94799.38;5014048;28;20185;-84
2020/12/06 08:34:11;;;;;;;14.03;8.00;;;;;;;10.24;70.12;94802.69;5012974;28;20177;-82
2020/12/06 08:36:37;;;;;;;16.87;9.23;;;;;;;10.18;70.00;94789.94;5014327;28;20588;-82
2020/12/06 08:39:14;;;;;;;17.30;8.43;;;;;;;10.22;69.85;94801.47;5014072;28;21055;-82
2020/12/06 08:41:39;;;;;;;16.00;8.53;;;;;;;10.13;69.91;94782.94;5013919;28;20177;-80
2020/12/06 08:44:05;;;;;;;15.50;8.20;;;;;;;10.16;70.39;94797.50;5013874;28;20616;-81
2020/12/06 08:46:31;;;;;;;15.97;8.60;;;;;;;10.09;70.17;94790.09;5013451;28;20181;-81
2020/12/06 08:48:59;;;;;;;18.27;10.80;;;;;;;10.15;70.75;94799.38;5015045;28;20177;-80
2020/12/06 08:51:25;;;;;;;19.43;9.57;;;;;;;10.19;69.70;94799.47;5013677;28;20599;-81
2020/12/06 08:53:50;;;;;;;16.33;8.30;;;;;;;10.08;71.11;94794.66;5013780;28;21185;-79
2020/12/06 08:56:37;;;;;;;15.30;8.73;;;;;;;10.04;70.93;94793.81;5013429;28;20303;-80
2020/12/06 08:59:05;;;;;;;14.30;8.10;;;;;;;9.99;71.17;94802.06;5013610;28;20598;-80
2020/12/06 09:01:31;;;;;;;21.30;9.00;;;;;;;9.99;71.56;94790.63;5013546;28;20654;-80
2020/12/06 09:03:57;;;;;;;19.43;9.73;;;;;;;10.08;71.21;94791.22;5013827;28;20976;-80
2020/12/06 09:06:22;;;;;;;18.27;9.30;;;;;;;10.16;70.80;94790.28;5012024;28;20635;-80
2020/12/06 09:08:48;;;;;;;17.10;9.20;;;;;;;10.24;70.98;94788.59;5013436;28;20184;-80
2020/12/06 09:11:18;;;;;;;15.97;9.43;;;;;;;10.20;71.75;94785.00;5013616;28;20711;-80
2020/12/06 09:13:44;;;;;;;18.57;9.63;;;;;;;10.15;70.96;94785.28;5013265;28;20181;-80
2020/12/06 09:16:09;;;;;;;17.17;9.43;;;;;;;10.09;71.82;94784.75;5013205;28;20926;-80
2020/12/06 09:18:35;;;;;;;21.93;9.93;;;;;;;10.12;71.60;94784.06;5013146;28;20208;-80
2020/12/06 09:21:00;;;;;;;16.57;9.77;;;;;;;10.21;71.34;94778.56;5014873;28;20172;-81
2020/12/06 09:23:26;;;;;;;16.90;9.70;;;;;;;10.02;71.77;94757.91;5012859;28;20188;-81
2020/12/06 09:25:51;;;;;;;22.67;10.17;;;;;;;10.10;71.44;94759.66;5012791;28;20232;-81
2020/12/06 09:28:17;;;;;;;19.80;10.10;;;;;;;10.11;70.98;94755.09;5012761;28;20177;-82
2020/12/06 09:30:43;;;;;;;23.33;10.30;;;;;;;10.20;71.09;94767.09;5012840;28;20207;-81
2020/12/06 09:33:09;;;;;;;21.67;10.87;;;;;;;10.12;70.83;94745.94;5012805;28;20606;-80
2020/12/06 09:35:34;;;;;;;16.83;9.80;;;;;;;10.11;71.78;94753.19;5012770;28;20683;-82
2020/12/06 09:38:00;;;;;;;14.57;9.13;;;;;;;10.08;71.65;94746.63;5014071;28;20173;-81
2020/12/06 09:40:25;;;;;;;16.17;9.63;;;;;;;9.97;72.25;94745.59;5012698;28;20236;-81
2020/12/06 09:42:51;;;;;;;17.90;9.80;;;;;;;9.99;72.19;94759.38;5012881;28;20177;-80
2020/12/06 09:45:16;;;;;;;23.27;10.70;;;;;;;10.03;71.89;94754.88;5012680;28;20320;-81
2020/12/06 09:47:42;;;;;;;16.50;9.87;;;;;;;10.02;72.60;94749.91;5012899;28;20644;-81
2020/12/06 09:50:07;;;;;;;20.30;9.93;;;;;;;10.03;72.46;94744.22;5012620;28;20273;-82
2020/12/06 09:52:33;;;;;;;24.70;11.30;;;;;;;10.06;71.95;94735.53;5012998;28;20201;-81
2020/12/06 09:54:58;;;;;;;20.77;11.03;;;;;;;10.01;72.49;94738.47;5015744;28;20169;-82
2020/12/06 09:57:25;;;;;;;16.03;9.97;;;;;;;10.00;72.50;94730.81;5014455;28;20177;-80
2020/12/06 09:59:51;;;;;;;22.33;11.27;;;;;;;9.91;72.42;94724.88;5028707;28;20199;-82
2020/12/06 10:02:16;;;;;;;20.10;11.37;;;;;;;9.93;72.70;94718.09;5038211;28;20599;-81
2020/12/06 10:04:42;;;;;;;24.77;12.13;;;;;;;9.72;73.24;94704.22;5018297;28;20603;-81
2020/12/06 10:07:07;;;;;;;21.63;11.87;;;;;;;9.92;73.15;94732.50;5013872;28;20653;-81
2020/12/06 10:09:33;;;;;;;25.57;13.13;;;;;;;9.52;73.58;94650.78;5015384;28;20205;-81
2020/12/06 10:11:58;;;;;;;22.27;11.53;;;;;;;9.87;73.51;94703.44;5014318;28;20263;-82
2020/12/06 10:14:24;;;;;;;25.57;13.20;;;;;;;9.88;73.93;94699.66;5013048;28;20401;-82
2020/12/06 10:16:51;;;;;;;24.30;12.77;;;;;;;9.90;73.54;94697.41;5012687;28;20200;-82
2020/12/06 10:19:16;;;;;;;25.50;12.40;;;;;;;9.93;73.44;94703.94;5013115;28;20696;-77
2020/12/06 10:21:42;;;;;;;22.90;12.40;;;;;;;10.96;84.14;94695.59;5027203;28;20629;-78
2020/12/06 10:24:07;;;;;;;22.43;11.87;;;;;;;11.74;78.75;94682.13;5012049;28;20570;-80
2020/12/06 10:26:33;;;;;;;22.87;11.63;;;;;;;12.06;67.90;94691.44;5012352;28;20217;-78
2020/12/06 10:28:59;;;;;;;22.20;12.03;;;;;;;11.39;67.77;94665.09;5012029;28;20652;-78
2020/12/06 10:31:25;;;;;;;26.23;11.90;;;;;;;11.10;69.21;94690.50;5012363;28;20184;-77
2020/12/06 10:33:50;;;;;;;20.53;10.63;;;;;;;10.74;70.86;94691.69;5012137;28;21044;-75
2020/12/06 10:36:16;;;;;;;23.00;11.80;;;;;;;10.46;71.00;94662.50;5012683;28;20623;-89
2020/12/06 10:38:42;;;;;;;23.00;11.50;;;;;;;10.46;71.85;94680.41;5028015;28;20644;-88
2020/12/06 10:41:07;;;;;;;23.17;11.80;;;;;;;10.47;72.10;94682.72;5014820;28;20199;-85
2020/12/06 10:43:33;;;;;;;27.83;12.33;;;;;;;10.50;72.15;94682.06;5013221;28;20224;-83
2020/12/06 10:45:58;;;;;;;21.70;11.40;;;;;;;10.35;72.35;94666.06;5014335;28;20223;-87
2020/12/06 10:48:24;;;;;;;22.63;11.70;;;;;;;10.30;72.66;94678.56;5011292;28;20220;-84
2020/12/06 10:50:53;;;;;;;24.17;12.13;;;;;;;10.25;73.10;94681.50;5012397;28;20247;-75
2020/12/06 10:53:20;;;;;;;22.40;10.47;;;;;;;10.23;72.62;94657.06;5017287;28;20173;-89
2020/12/06 10:55:45;;;;;;;24.33;12.50;;;;;;;10.28;73.15;94670.13;5015098;28;20575;-88
2020/12/06 10:58:11;;;;;;;22.23;11.97;;;;;;;10.27;72.58;94667.81;5013946;28;20641;-87
2020/12/06 11:00:37;;;;;;;22.00;11.30;;;;;;;10.35;72.82;94674.84;5021249;28;20240;-87
2020/12/06 11:03:02;;;;;;;21.93;12.03;;;;;;;10.25;73.49;94662.03;5014169;28;20185;-91
2020/12/06 11:05:28;;;;;;;19.17;10.70;;;;;;;10.36;72.29;94672.94;5013046;28;20227;-92
2020/12/06 11:07:53;;;;;;;22.73;11.50;;;;;;;10.42;72.59;94675.00;5013157;28;20212;-86
2020/12/06 11:10:19;;;;;;;25.53;11.80;;;;;;;10.45;72.35;94674.31;5013085;28;20211;-92
2020/12/06 11:12:44;;;;;;;21.00;11.40;;;;;;;10.40;71.63;94639.88;5013433;28;20284;-89
2020/12/06 11:15:10;;;;;;;21.80;12.00;;;;;;;10.38;71.71;94620.78;5024929;28;20176;-86
2020/12/06 11:17:35;;;;;;;22.73;11.53;;;;;;;10.52;71.63;94650.44;5035341;28;20666;-84
2020/12/06 11:20:01;;;;;;;21.33;11.40;;;;;;;10.53;71.87;94651.19;5031966;28;20666;-86
2020/12/06 11:22:27;;;;;;;22.90;12.63;;;;;;;10.45;71.75;94614.81;5032705;28;20183;-86
2020/12/06 11:24:52;;;;;;;20.23;11.97;;;;;;;10.55;71.68;94656.94;5032675;28;20266;-90